FHBGH LFML-LFLJ
Flight info
| Callsign | FHBGH |
|---|---|
| Flight time | 0h 39m |
| Altitude | 24000 |
| Route | AVN DCT XIRBI DCT NEDRU DCT OBIGO |
| Aircraft | PC12/L-SDFGRWY/S |
Departure
| Time | 2026-04-22 15:34 |
|---|---|
| Airport | Marseille Provence Airport (LFML) |
Arrival
| Time | 2026-04-22 16:14 |
|---|---|
| Airport | Courchevel Altiport (LFLJ) |
| Time | Latitude | Longitude | Altitude | Speed | Heading |
|---|---|---|---|---|---|
| 2026-04-22 15:23 | 43.44411 | 5.21553 | 34 ft | 0 kts | 330° |
| 2026-04-22 15:31 | 43.44410 | 5.21553 | 34 ft | 1 kts | 321° |
| 2026-04-22 15:31 | 43.44392 | 5.21554 | 34 ft | 13 kts | 145° |
| 2026-04-22 15:31 | 43.44307 | 5.21445 | 34 ft | 30 kts | 257° |
| 2026-04-22 15:31 | 43.44209 | 5.21024 | 33 ft | 32 kts | 329° |
| 2026-04-22 15:32 | 43.44279 | 5.20956 | 33 ft | 4 kts | 308° |
| 2026-04-22 15:32 | 43.44288 | 5.20938 | 33 ft | 8 kts | 306° |
| 2026-04-22 15:32 | 43.44309 | 5.20838 | 33 ft | 7 kts | 263° |
| 2026-04-22 15:32 | 43.44284 | 5.20779 | 33 ft | 2 kts | 227° |
| 2026-04-22 15:33 | 43.44256 | 5.20744 | 32 ft | 20 kts | 217° |
| 2026-04-22 15:33 | 43.44189 | 5.20748 | 31 ft | 10 kts | 128° |
| 2026-04-22 15:33 | 43.43972 | 5.21070 | 33 ft | 79 kts | 134° |
| 2026-04-22 15:33 | 43.43483 | 5.21749 | 152 ft | 118 kts | 129° |
| 2026-04-22 15:34 | 43.42876 | 5.22675 | 622 ft | 135 kts | 126° |
| 2026-04-22 15:34 | 43.42335 | 5.23720 | 1353 ft | 130 kts | 110° |
| 2026-04-22 15:34 | 43.42468 | 5.24910 | 2066 ft | 135 kts | 62° |
| 2026-04-22 15:34 | 43.43167 | 5.25802 | 2970 ft | 139 kts | 29° |
| 2026-04-22 15:35 | 43.44149 | 5.25922 | 3797 ft | 148 kts | 345° |
| 2026-04-22 15:35 | 43.45043 | 5.25207 | 4692 ft | 149 kts | 325° |
| 2026-04-22 15:35 | 43.45865 | 5.24390 | 5646 ft | 143 kts | 327° |
| 2026-04-22 15:35 | 43.46689 | 5.23629 | 6506 ft | 143 kts | 327° |
| 2026-04-22 15:36 | 43.47517 | 5.22866 | 7328 ft | 141 kts | 326° |
| 2026-04-22 15:36 | 43.48318 | 5.22114 | 8190 ft | 139 kts | 326° |
| 2026-04-22 15:36 | 43.49117 | 5.21381 | 9070 ft | 136 kts | 326° |
| 2026-04-22 15:36 | 43.49896 | 5.20667 | 9963 ft | 133 kts | 326° |
| 2026-04-22 15:37 | 43.50657 | 5.19969 | 10725 ft | 133 kts | 325° |
| 2026-04-22 15:37 | 43.51430 | 5.19260 | 11519 ft | 134 kts | 324° |
| 2026-04-22 15:37 | 43.52214 | 5.18540 | 12285 ft | 136 kts | 323° |
| 2026-04-22 15:37 | 43.53005 | 5.17814 | 13092 ft | 136 kts | 323° |
| 2026-04-22 15:38 | 43.53792 | 5.17091 | 13883 ft | 136 kts | 322° |
| 2026-04-22 15:38 | 43.55385 | 5.15625 | 15247 ft | 141 kts | 322° |
| 2026-04-22 15:38 | 43.56211 | 5.14865 | 15923 ft | 144 kts | 322° |
| 2026-04-22 15:39 | 43.57152 | 5.14330 | 16586 ft | 154 kts | 344° |
| 2026-04-22 15:39 | 43.58255 | 5.14383 | 17286 ft | 162 kts | 357° |
| 2026-04-22 15:39 | 43.59374 | 5.14559 | 17957 ft | 165 kts | 356° |
| 2026-04-22 15:39 | 43.60542 | 5.14731 | 18454 ft | 173 kts | 357° |
| 2026-04-22 15:40 | 43.61725 | 5.14916 | 19096 ft | 169 kts | 357° |
| 2026-04-22 15:40 | 43.62904 | 5.15094 | 19641 ft | 172 kts | 357° |
| 2026-04-22 15:40 | 43.64105 | 5.15276 | 20190 ft | 175 kts | 357° |
| 2026-04-22 15:40 | 43.65402 | 5.15463 | 20355 ft | 200 kts | 358° |
| 2026-04-22 15:41 | 43.66855 | 5.15682 | 20409 ft | 224 kts | 359° |
| 2026-04-22 15:41 | 43.68468 | 5.15934 | 20463 ft | 242 kts | 360° |
| 2026-04-22 15:41 | 43.70187 | 5.16202 | 20517 ft | 254 kts | 0° |
| 2026-04-22 15:41 | 43.71980 | 5.16479 | 20565 ft | 261 kts | 0° |
| 2026-04-22 15:42 | 43.73806 | 5.16759 | 20586 ft | 265 kts | 0° |
| 2026-04-22 15:42 | 43.75651 | 5.17042 | 20597 ft | 268 kts | 0° |
| 2026-04-22 15:42 | 43.77486 | 5.17323 | 20607 ft | 270 kts | 0° |
| 2026-04-22 15:42 | 43.79328 | 5.17610 | 21034 ft | 255 kts | 0° |
| 2026-04-22 15:43 | 43.80998 | 5.17874 | 21990 ft | 228 kts | 359° |
| 2026-04-22 15:43 | 43.82493 | 5.18103 | 23091 ft | 202 kts | 358° |
| 2026-04-22 15:43 | 43.83837 | 5.18302 | 23870 ft | 194 kts | 358° |
| 2026-04-22 15:43 | 43.85220 | 5.18497 | 24103 ft | 209 kts | 358° |
| 2026-04-22 15:44 | 43.86753 | 5.18723 | 24110 ft | 231 kts | 359° |
| 2026-04-22 15:44 | 43.88416 | 5.18984 | 24117 ft | 247 kts | 0° |
| 2026-04-22 15:44 | 43.90168 | 5.19260 | 24116 ft | 259 kts | 0° |
| 2026-04-22 15:44 | 43.91962 | 5.19539 | 24115 ft | 265 kts | 0° |
| 2026-04-22 15:45 | 43.93816 | 5.19824 | 24116 ft | 269 kts | 0° |
| 2026-04-22 15:45 | 43.95685 | 5.20112 | 24113 ft | 271 kts | 0° |
| 2026-04-22 15:45 | 43.97560 | 5.20402 | 24111 ft | 270 kts | 0° |
| 2026-04-22 15:45 | 43.99412 | 5.20688 | 24114 ft | 269 kts | 0° |
| 2026-04-22 15:46 | 44.01281 | 5.20975 | 24112 ft | 270 kts | 0° |
| 2026-04-22 15:46 | 44.03130 | 5.21260 | 24109 ft | 269 kts | 0° |
| 2026-04-22 15:46 | 44.05012 | 5.21550 | 24110 ft | 269 kts | 0° |
| 2026-04-22 15:46 | 44.06869 | 5.21836 | 24109 ft | 269 kts | 0° |
| 2026-04-22 15:47 | 44.08729 | 5.22123 | 24107 ft | 269 kts | 0° |
| 2026-04-22 15:47 | 44.10592 | 5.22411 | 24107 ft | 269 kts | 0° |
| 2026-04-22 15:47 | 44.12431 | 5.22695 | 24107 ft | 268 kts | 0° |
| 2026-04-22 15:47 | 44.14291 | 5.22984 | 24107 ft | 268 kts | 0° |
| 2026-04-22 15:48 | 44.16144 | 5.23271 | 24101 ft | 267 kts | 0° |
| 2026-04-22 15:48 | 44.17993 | 5.23556 | 24106 ft | 267 kts | 0° |
| 2026-04-22 15:48 | 44.19849 | 5.23844 | 24100 ft | 268 kts | 0° |
| 2026-04-22 15:48 | 44.21698 | 5.24131 | 24101 ft | 268 kts | 0° |
| 2026-04-22 15:49 | 44.23556 | 5.24420 | 24106 ft | 268 kts | 1° |
| 2026-04-22 15:49 | 44.25411 | 5.24708 | 24102 ft | 268 kts | 0° |
| 2026-04-22 15:49 | 44.27238 | 5.24992 | 24099 ft | 267 kts | 1° |
| 2026-04-22 15:49 | 44.29077 | 5.25277 | 24102 ft | 266 kts | 0° |
| 2026-04-22 15:50 | 44.30919 | 5.25565 | 24096 ft | 266 kts | 360° |
| 2026-04-22 15:50 | 44.32761 | 5.25850 | 24097 ft | 266 kts | 0° |
| 2026-04-22 15:50 | 44.34605 | 5.26137 | 24090 ft | 265 kts | 0° |
| 2026-04-22 15:50 | 44.36430 | 5.26483 | 24090 ft | 267 kts | 6° |
| 2026-04-22 15:51 | 44.38217 | 5.27320 | 24082 ft | 274 kts | 18° |
| 2026-04-22 15:51 | 44.39886 | 5.28582 | 24091 ft | 277 kts | 22° |
| 2026-04-22 15:51 | 44.41571 | 5.29900 | 24090 ft | 277 kts | 22° |
| 2026-04-22 15:51 | 44.43261 | 5.31205 | 24083 ft | 277 kts | 22° |
| 2026-04-22 15:52 | 44.44958 | 5.32522 | 24084 ft | 279 kts | 22° |
| 2026-04-22 15:52 | 44.46664 | 5.33853 | 24093 ft | 281 kts | 21° |
| 2026-04-22 15:52 | 44.48363 | 5.35179 | 24096 ft | 283 kts | 21° |
| 2026-04-22 15:52 | 44.50092 | 5.36528 | 24092 ft | 284 kts | 21° |
| 2026-04-22 15:53 | 44.51827 | 5.37881 | 24090 ft | 286 kts | 21° |
| 2026-04-22 15:53 | 44.53573 | 5.39244 | 24089 ft | 286 kts | 21° |
| 2026-04-22 15:53 | 44.55289 | 5.40587 | 24088 ft | 286 kts | 21° |
| 2026-04-22 15:53 | 44.57036 | 5.41949 | 24085 ft | 288 kts | 21° |
| 2026-04-22 15:54 | 44.58810 | 5.43220 | 24083 ft | 289 kts | 22° |
| 2026-04-22 15:54 | 44.60531 | 5.44726 | 24081 ft | 290 kts | 25° |
| 2026-04-22 15:54 | 44.62263 | 5.46177 | 24073 ft | 290 kts | 23° |
| 2026-04-22 15:54 | 44.63993 | 5.47567 | 24071 ft | 288 kts | 21° |
| 2026-04-22 15:55 | 44.65780 | 5.48863 | 24063 ft | 288 kts | 19° |
| 2026-04-22 15:55 | 44.67554 | 5.50185 | 24070 ft | 289 kts | 21° |
| 2026-04-22 15:55 | 44.69313 | 5.51575 | 24071 ft | 291 kts | 22° |
| 2026-04-22 15:55 | 44.70915 | 5.53372 | 24071 ft | 301 kts | 41° |
| 2026-04-22 15:56 | 44.72278 | 5.55614 | 24071 ft | 304 kts | 43° |
| 2026-04-22 15:56 | 44.73635 | 5.57918 | 24067 ft | 305 kts | 44° |
| 2026-04-22 15:56 | 44.74988 | 5.60232 | 24076 ft | 305 kts | 44° |
| 2026-04-22 15:56 | 44.76343 | 5.62533 | 24067 ft | 305 kts | 44° |
| 2026-04-22 15:57 | 44.77678 | 5.64793 | 24073 ft | 303 kts | 43° |
| 2026-04-22 15:57 | 44.79022 | 5.67078 | 24071 ft | 300 kts | 43° |
| 2026-04-22 15:57 | 44.80343 | 5.69328 | 24066 ft | 298 kts | 43° |
| 2026-04-22 15:57 | 44.81666 | 5.71576 | 24074 ft | 296 kts | 43° |
| 2026-04-22 15:58 | 44.82978 | 5.73812 | 24075 ft | 293 kts | 43° |
| 2026-04-22 15:58 | 44.84269 | 5.76012 | 24075 ft | 292 kts | 43° |
| 2026-04-22 15:58 | 44.85548 | 5.78190 | 24073 ft | 292 kts | 43° |
| 2026-04-22 15:58 | 44.86832 | 5.80385 | 24069 ft | 288 kts | 43° |
| 2026-04-22 15:59 | 44.88103 | 5.82559 | 24066 ft | 286 kts | 43° |
| 2026-04-22 15:59 | 44.89367 | 5.84717 | 24065 ft | 285 kts | 43° |
| 2026-04-22 15:59 | 44.90632 | 5.86877 | 24065 ft | 287 kts | 43° |
| 2026-04-22 15:59 | 44.91907 | 5.89060 | 24066 ft | 288 kts | 43° |
| 2026-04-22 16:00 | 44.93177 | 5.91239 | 24068 ft | 288 kts | 43° |
| 2026-04-22 16:00 | 44.94450 | 5.93424 | 24068 ft | 288 kts | 43° |
| 2026-04-22 16:00 | 44.95723 | 5.95609 | 24069 ft | 287 kts | 43° |
| 2026-04-22 16:00 | 44.97000 | 5.97799 | 24077 ft | 289 kts | 43° |
| 2026-04-22 16:01 | 44.98270 | 5.99979 | 24011 ft | 292 kts | 43° |
| 2026-04-22 16:01 | 44.99552 | 6.02190 | 24007 ft | 288 kts | 43° |
| 2026-04-22 16:01 | 45.00822 | 6.04383 | 24008 ft | 287 kts | 43° |
| 2026-04-22 16:01 | 45.02092 | 6.06563 | 23999 ft | 286 kts | 43° |
| 2026-04-22 16:02 | 45.03355 | 6.08741 | 24003 ft | 285 kts | 42° |
| 2026-04-22 16:02 | 45.04606 | 6.10901 | 24005 ft | 287 kts | 42° |
| 2026-04-22 16:02 | 45.05877 | 6.13094 | 23996 ft | 284 kts | 42° |
| 2026-04-22 16:02 | 45.07121 | 6.15251 | 22919 ft | 288 kts | 41° |
| 2026-04-22 16:03 | 45.08416 | 6.17479 | 21997 ft | 292 kts | 42° |
| 2026-04-22 16:03 | 45.09680 | 6.19674 | 21090 ft | 291 kts | 42° |
| 2026-04-22 16:03 | 45.10963 | 6.21900 | 20302 ft | 289 kts | 42° |
| 2026-04-22 16:03 | 45.12188 | 6.24042 | 20012 ft | 266 kts | 42° |
| 2026-04-22 16:04 | 45.13312 | 6.25999 | 20004 ft | 255 kts | 40° |
| 2026-04-22 16:04 | 45.14483 | 6.27982 | 20011 ft | 268 kts | 41° |
| 2026-04-22 16:04 | 45.15681 | 6.30050 | 20019 ft | 282 kts | 42° |
| 2026-04-22 16:04 | 45.16930 | 6.32246 | 20037 ft | 289 kts | 42° |
| 2026-04-22 16:05 | 45.17771 | 6.33720 | 20032 ft | 291 kts | 42° |
| 2026-04-22 16:05 | 45.19500 | 6.36727 | 20033 ft | 295 kts | 42° |
| 2026-04-22 16:05 | 45.20797 | 6.38984 | 20034 ft | 296 kts | 42° |
| 2026-04-22 16:05 | 45.22120 | 6.41215 | 20016 ft | 286 kts | 37° |
| 2026-04-22 16:06 | 45.23544 | 6.43086 | 19001 ft | 283 kts | 32° |
| 2026-04-22 16:06 | 45.25040 | 6.44905 | 17976 ft | 287 kts | 34° |
| 2026-04-22 16:06 | 45.26543 | 6.46781 | 16700 ft | 289 kts | 34° |
| 2026-04-22 16:06 | 45.28038 | 6.48689 | 15697 ft | 288 kts | 36° |
| 2026-04-22 16:07 | 45.29508 | 6.50557 | 15120 ft | 273 kts | 36° |
| 2026-04-22 16:07 | 45.30814 | 6.52210 | 15010 ft | 238 kts | 35° |
| 2026-04-22 16:07 | 45.32053 | 6.53758 | 13975 ft | 246 kts | 36° |
| 2026-04-22 16:07 | 45.33414 | 6.55443 | 12461 ft | 273 kts | 38° |
| 2026-04-22 16:08 | 45.34810 | 6.57224 | 12023 ft | 253 kts | 39° |
| 2026-04-22 16:08 | 45.36022 | 6.58777 | 12016 ft | 228 kts | 38° |
| 2026-04-22 16:08 | 45.37224 | 6.60277 | 11545 ft | 230 kts | 38° |
| 2026-04-22 16:08 | 45.38437 | 6.61808 | 11057 ft | 224 kts | 39° |
| 2026-04-22 16:09 | 45.39518 | 6.63184 | 10954 ft | 197 kts | 36° |
| 2026-04-22 16:09 | 45.40652 | 6.64069 | 10455 ft | 187 kts | 7° |
| 2026-04-22 16:09 | 45.42019 | 6.63805 | 9473 ft | 208 kts | 332° |
| 2026-04-22 16:09 | 45.43064 | 6.62475 | 8988 ft | 200 kts | 311° |
| 2026-04-22 16:10 | 45.44015 | 6.61036 | 8315 ft | 202 kts | 315° |
| 2026-04-22 16:10 | 45.45013 | 6.59632 | 8007 ft | 192 kts | 316° |
| 2026-04-22 16:10 | 45.45628 | 6.58789 | 7881 ft | 181 kts | 314° |
| 2026-04-22 16:10 | 45.46779 | 6.57343 | 7831 ft | 148 kts | 338° |
| 2026-04-22 16:11 | 45.47648 | 6.57885 | 7759 ft | 169 kts | 71° |
| 2026-04-22 16:11 | 45.47097 | 6.59273 | 7571 ft | 183 kts | 149° |
| 2026-04-22 16:11 | 45.46079 | 6.60177 | 7181 ft | 165 kts | 151° |
| 2026-04-22 16:11 | 45.45161 | 6.61052 | 6835 ft | 156 kts | 140° |
| 2026-04-22 16:12 | 45.44440 | 6.62059 | 6852 ft | 132 kts | 133° |
| 2026-04-22 16:12 | 45.43828 | 6.63003 | 6708 ft | 135 kts | 133° |
| 2026-04-22 16:12 | 45.43159 | 6.63993 | 6768 ft | 144 kts | 133° |
| 2026-04-22 16:12 | 45.42523 | 6.65090 | 6623 ft | 135 kts | 131° |
| 2026-04-22 16:13 | 45.41788 | 6.65541 | 6419 ft | 107 kts | 198° |
| 2026-04-22 16:13 | 45.41158 | 6.65112 | 6428 ft | 92 kts | 215° |
| 2026-04-22 16:13 | 45.40620 | 6.64633 | 6464 ft | 92 kts | 218° |
| 2026-04-22 16:13 | 45.40140 | 6.64043 | 6483 ft | 94 kts | 224° |
| 2026-04-22 16:14 | 45.39837 | 6.63583 | 6519 ft | 11 kts | 219° |
| 2026-04-22 16:14 | 45.39816 | 6.63565 | 6533 ft | 11 kts | 211° |
| 2026-04-22 16:14 | 45.39745 | 6.63488 | 6593 ft | 7 kts | 222° |
| 2026-04-22 16:14 | 45.39686 | 6.63407 | 6642 ft | 16 kts | 224° |
| 2026-04-22 16:15 | 45.39680 | 6.63400 | 6646 ft | 1 kts | 227° |
| 2026-04-22 16:15 | 45.39653 | 6.63367 | 6660 ft | 6 kts | 177° |
| 2026-04-22 16:15 | 45.39627 | 6.63399 | 6656 ft | 0 kts | 160° |
| 2026-04-22 16:15 | 45.39620 | 6.63399 | 6656 ft | 3 kts | 217° |
| 2026-04-22 16:16 | 45.39621 | 6.63392 | 6657 ft | 0 kts | 321° |